Time;durP1;ratioP1;P1;durP2;ratioP2;P2;SDS_P1;SDS_P2;PMS_P1;PMS_P2;Temp;Humidity;BMP_temperature;BMP_pressure;BME280_temperature;BME280_humidity;BME280_pressure;Samples;Min_cycle;Max_cycle;Signal;HPM_P1;HPM_P2
2024/02/23 00:00:16;;;;;;;9.88;7.15;;;;;;;;;;10330361;28;20121;-62
2024/02/23 00:05:17;;;;;;;9.98;6.88;;;;;;;;;;10331349;28;20043;-62
2024/02/23 00:10:17;;;;;;;12.75;7.20;;;;;;;;;;10331238;28;20030;-62
2024/02/23 00:15:18;;;;;;;11.48;7.70;;;;;;;;;;10330801;28;20069;-62
2024/02/23 00:20:19;;;;;;;9.13;7.35;;;;;;;;;;10331356;28;20029;-62
2024/02/23 00:25:19;;;;;;;10.88;6.93;;;;;;;;;;10330381;28;20089;-62
2024/02/23 00:30:20;;;;;;;14.13;7.43;;;;;;;;;;10329707;28;20030;-62
2024/02/23 00:35:20;;;;;;;7.97;6.28;;;;;;;;;;10330710;28;20026;-62
2024/02/23 00:40:23;;;;;;;10.15;6.65;;;;;;;;;;10330430;28;20643;-61
2024/02/23 00:45:23;;;;;;;8.68;6.55;;;;;;;;;;10330255;28;20031;-62
2024/02/23 00:50:26;;;;;;;7.32;5.85;;;;;;;;;;10330225;28;20049;-62
2024/02/23 00:55:27;;;;;;;11.25;6.32;;;;;;;;;;10329453;28;20080;-62
2024/02/23 01:00:27;;;;;;;14.90;6.80;;;;;;;;;;10330671;28;20030;-62
2024/02/23 01:05:28;;;;;;;9.45;6.55;;;;;;;;;;10328867;28;20065;-62
2024/02/23 01:10:29;;;;;;;8.05;5.70;;;;;;;;;;10329408;28;20026;-63
2024/02/23 01:15:29;;;;;;;8.27;6.38;;;;;;;;;;10328506;28;20042;-63
2024/02/23 01:20:30;;;;;;;7.85;6.13;;;;;;;;;;10329125;28;20030;-63
2024/02/23 01:25:30;;;;;;;7.38;5.85;;;;;;;;;;10328314;28;20057;-63
2024/02/23 01:30:31;;;;;;;6.97;5.03;;;;;;;;;;10326811;28;20030;-63
2024/02/23 01:35:32;;;;;;;5.60;5.00;;;;;;;;;;10327921;28;20089;-63
2024/02/23 01:40:32;;;;;;;12.02;5.10;;;;;;;;;;10327965;28;20241;-63
2024/02/23 01:45:33;;;;;;;6.80;5.15;;;;;;;;;;10327531;28;20033;-63
2024/02/23 01:50:34;;;;;;;6.20;5.60;;;;;;;;;;10327395;28;20061;-63
2024/02/23 01:55:35;;;;;;;5.47;4.70;;;;;;;;;;10326116;28;20441;-62
2024/02/23 02:00:36;;;;;;;6.35;4.85;;;;;;;;;;10327320;28;20085;-62
2024/02/23 02:05:37;;;;;;;6.68;4.80;;;;;;;;;;10327192;28;20050;-62
2024/02/23 02:10:38;;;;;;;6.18;5.00;;;;;;;;;;10326911;28;20085;-63
2024/02/23 02:15:39;;;;;;;5.13;4.63;;;;;;;;;;10327291;28;20390;-63
2024/02/23 02:20:53;;;;;;;6.80;4.97;;;;;;;;;;10326522;28;20041;-63
2024/02/23 02:25:58;;;;;;;5.50;4.88;;;;;;;;;;10325570;28;20034;-62
2024/02/23 02:30:58;;;;;;;5.85;4.55;;;;;;;;;;10326733;28;20034;-63
2024/02/23 02:35:59;;;;;;;4.97;4.25;;;;;;;;;;10327321;28;20034;-62
2024/02/23 02:41:02;;;;;;;6.20;4.55;;;;;;;;;;10326842;28;20026;-62
2024/02/23 02:46:03;;;;;;;5.45;4.15;;;;;;;;;;10326995;28;20038;-62
2024/02/23 02:51:04;;;;;;;7.68;4.30;;;;;;;;;;10326310;28;20030;-62
2024/02/23 02:56:07;;;;;;;6.28;4.20;;;;;;;;;;10331675;28;20117;-62
2024/02/23 03:01:08;;;;;;;8.18;4.00;;;;;;;;;;10334436;28;20034;-63
2024/02/23 03:06:09;;;;;;;6.35;4.20;;;;;;;;;;10333919;28;20042;-62
2024/02/23 03:11:10;;;;;;;4.53;3.67;;;;;;;;;;10334154;28;20501;-62
2024/02/23 03:16:17;;;;;;;4.30;3.60;;;;;;;;;;10333374;28;20489;-62
2024/02/23 03:21:18;;;;;;;5.33;4.23;;;;;;;;;;10333431;28;20044;-62
2024/02/23 03:26:19;;;;;;;3.72;3.40;;;;;;;;;;10333618;28;20027;-62
2024/02/23 03:31:19;;;;;;;3.85;3.35;;;;;;;;;;10333394;28;20436;-61
2024/02/23 03:36:20;;;;;;;6.45;3.00;;;;;;;;;;10331875;28;20034;-63
2024/02/23 03:41:20;;;;;;;6.00;3.22;;;;;;;;;;10332788;28;20029;-63
2024/02/23 03:46:21;;;;;;;3.40;3.03;;;;;;;;;;10333149;28;20046;-62
2024/02/23 03:51:22;;;;;;;3.95;3.20;;;;;;;;;;10332456;28;20046;-62
2024/02/23 03:56:23;;;;;;;2.95;2.65;;;;;;;;;;10332532;28;20414;-63
2024/02/23 04:01:23;;;;;;;3.25;2.55;;;;;;;;;;10332267;28;20393;-63
2024/02/23 04:06:24;;;;;;;3.30;3.00;;;;;;;;;;10330278;28;20061;-62
2024/02/23 04:11:24;;;;;;;2.95;2.65;;;;;;;;;;10331091;28;20197;-62
2024/02/23 04:16:25;;;;;;;3.00;2.58;;;;;;;;;;10331373;28;20022;-63
2024/02/23 04:21:26;;;;;;;2.47;2.28;;;;;;;;;;10331283;28;20035;-62
2024/02/23 04:26:26;;;;;;;2.60;2.40;;;;;;;;;;10330839;28;20026;-62
2024/02/23 04:31:27;;;;;;;2.50;2.30;;;;;;;;;;10330467;28;20076;-62
2024/02/23 04:36:28;;;;;;;2.75;2.45;;;;;;;;;;10330867;28;20026;-62
2024/02/23 04:41:28;;;;;;;2.80;2.55;;;;;;;;;;10330787;28;20473;-62
2024/02/23 04:46:30;;;;;;;3.95;2.28;;;;;;;;;;10330070;28;20367;-62
2024/02/23 04:51:31;;;;;;;2.42;2.22;;;;;;;;;;10329833;28;20034;-64
2024/02/23 04:56:33;;;;;;;2.40;1.83;;;;;;;;;;10329907;28;20041;-62
2024/02/23 05:01:37;;;;;;;3.08;2.22;;;;;;;;;;10329455;28;20363;-63
2024/02/23 05:06:38;;;;;;;2.20;2.00;;;;;;;;;;10329109;28;20092;-62
2024/02/23 05:11:38;;;;;;;2.17;1.98;;;;;;;;;;10329075;28;20049;-62
2024/02/23 05:16:39;;;;;;;2.22;2.00;;;;;;;;;;10329140;28;20485;-62
2024/02/23 05:21:39;;;;;;;2.30;2.03;;;;;;;;;;10329324;28;20034;-62
2024/02/23 05:26:40;;;;;;;2.92;2.38;;;;;;;;;;10328961;28;20034;-62
2024/02/23 05:31:52;;;;;;;2.60;2.00;;;;;;;;;;10328431;28;20038;-62
2024/02/23 05:36:53;;;;;;;2.65;2.05;;;;;;;;;;10328200;28;20477;-62
2024/02/23 05:41:53;;;;;;;2.08;1.88;;;;;;;;;;10327969;28;20030;-62
2024/02/23 05:46:54;;;;;;;1.70;1.60;;;;;;;;;;10327317;28;20038;-62
2024/02/23 05:51:55;;;;;;;2.42;2.10;;;;;;;;;;10327627;28;20041;-62
2024/02/23 05:56:55;;;;;;;1.77;1.63;;;;;;;;;;10327598;28;20030;-62
2024/02/23 06:01:58;;;;;;;3.13;2.20;;;;;;;;;;10328308;28;20027;-62
2024/02/23 06:06:59;;;;;;;2.00;1.65;;;;;;;;;;10326794;28;20189;-63
2024/02/23 06:12:00;;;;;;;2.13;1.88;;;;;;;;;;10326685;28;20250;-62
2024/02/23 06:17:01;;;;;;;2.65;2.20;;;;;;;;;;10326926;28;20030;-63
2024/02/23 06:22:02;;;;;;;3.13;1.92;;;;;;;;;;10326774;28;20181;-61
2024/02/23 06:27:03;;;;;;;2.95;1.75;;;;;;;;;;10327358;28;20151;-61
2024/02/23 06:32:04;;;;;;;2.00;1.80;;;;;;;;;;10334457;28;20029;-61
2024/02/23 06:37:05;;;;;;;2.35;1.90;;;;;;;;;;10335012;28;20133;-61
2024/02/23 06:42:06;;;;;;;2.47;2.00;;;;;;;;;;10334873;28;20084;-62
2024/02/23 06:47:06;;;;;;;5.38;2.35;;;;;;;;;;10335160;28;20413;-62
2024/02/23 06:52:07;;;;;;;2.88;2.13;;;;;;;;;;10334278;28;20041;-62
2024/02/23 06:57:08;;;;;;;4.15;2.35;;;;;;;;;;10333966;28;20030;-61
2024/02/23 07:02:08;;;;;;;1.65;1.55;;;;;;;;;;10333974;28;20050;-62
2024/02/23 07:07:09;;;;;;;3.85;2.10;;;;;;;;;;10332909;28;20047;-61
2024/02/23 07:12:13;;;;;;;4.32;2.10;;;;;;;;;;10332291;28;20513;-61
2024/02/23 07:17:17;;;;;;;3.70;2.47;;;;;;;;;;10332874;28;20355;-62
2024/02/23 07:22:18;;;;;;;5.55;2.05;;;;;;;;;;10332212;28;20105;-62
2024/02/23 07:27:19;;;;;;;4.82;2.28;;;;;;;;;;10330902;28;20022;-61
2024/02/23 07:32:19;;;;;;;3.60;2.03;;;;;;;;;;10332565;28;20041;-61
2024/02/23 07:37:20;;;;;;;2.28;2.08;;;;;;;;;;10332828;28;20081;-61
2024/02/23 07:42:21;;;;;;;7.78;2.60;;;;;;;;;;10332591;28;20049;-61
2024/02/23 07:47:21;;;;;;;3.05;2.05;;;;;;;;;;10332236;28;20413;-61
2024/02/23 07:52:25;;;;;;;3.35;2.05;;;;;;;;;;10333084;28;20022;-61
2024/02/23 07:57:25;;;;;;;6.85;2.30;;;;;;;;;;10331946;28;20117;-61
2024/02/23 08:02:26;;;;;;;2.67;2.05;;;;;;;;;;10331785;28;20018;-61
2024/02/23 08:07:28;;;;;;;4.13;2.25;;;;;;;;;;10331827;28;20038;-61
2024/02/23 08:12:28;;;;;;;5.05;2.30;;;;;;;;;;10331574;28;20030;-61
2024/02/23 08:17:29;;;;;;;3.70;2.10;;;;;;;;;;10331201;28;20041;-61
2024/02/23 08:22:30;;;;;;;8.85;2.72;;;;;;;;;;10331219;28;20034;-61
2024/02/23 08:27:30;;;;;;;6.53;2.20;;;;;;;;;;10331134;28;20046;-60
2024/02/23 08:32:31;;;;;;;4.15;2.38;;;;;;;;;;10331057;28;20038;-61
2024/02/23 08:37:31;;;;;;;4.00;2.38;;;;;;;;;;10330373;28;20038;-61
2024/02/23 08:42:32;;;;;;;4.43;2.30;;;;;;;;;;10330019;28;20104;-61
2024/02/23 08:47:35;;;;;;;6.55;2.55;;;;;;;;;;10330080;28;20026;-61
2024/02/23 08:52:35;;;;;;;3.08;1.83;;;;;;;;;;10329612;28;20030;-61
2024/02/23 08:57:36;;;;;;;5.97;2.05;;;;;;;;;;10329566;28;20027;-61
2024/02/23 09:02:37;;;;;;;3.03;2.20;;;;;;;;;;10329239;28;20038;-61
2024/02/23 09:07:38;;;;;;;6.63;2.50;;;;;;;;;;10329281;28;20057;-61
2024/02/23 09:12:39;;;;;;;2.40;2.08;;;;;;;;;;10329618;28;20022;-60
2024/02/23 09:17:42;;;;;;;2.97;2.15;;;;;;;;;;10328948;28;20034;-60
2024/02/23 09:22:43;;;;;;;3.88;2.42;;;;;;;;;;10327338;28;20031;-61
2024/02/23 09:27:43;;;;;;;3.42;2.13;;;;;;;;;;10328439;28;20026;-61
2024/02/23 09:32:44;;;;;;;4.97;2.33;;;;;;;;;;10328782;28;20085;-61
2024/02/23 09:37:45;;;;;;;8.13;2.45;;;;;;;;;;10328302;28;20425;-61
2024/02/23 09:42:58;;;;;;;4.32;2.50;;;;;;;;;;10328170;28;20398;-61
2024/02/23 09:48:03;;;;;;;4.30;2.35;;;;;;;;;;10311461;28;20471;-61
2024/02/23 09:53:08;;;;;;;5.97;2.60;;;;;;;;;;10327327;28;20489;-61
2024/02/23 09:58:10;;;;;;;2.92;1.90;;;;;;;;;;10327571;28;20478;-61
2024/02/23 10:03:10;;;;;;;3.50;2.60;;;;;;;;;;10325844;28;20042;-60
2024/02/23 10:08:12;;;;;;;8.20;2.45;;;;;;;;;;10327065;28;20034;-61
2024/02/23 10:13:13;;;;;;;3.92;2.22;;;;;;;;;;10328027;28;20022;-61
2024/02/23 10:18:14;;;;;;;5.47;2.80;;;;;;;;;;10326915;28;20040;-62
2024/02/23 10:23:15;;;;;;;5.53;2.65;;;;;;;;;;10327340;28;20018;-61
2024/02/23 10:28:16;;;;;;;4.35;1.83;;;;;;;;;;10326084;28;20038;-61
2024/02/23 10:33:23;;;;;;;6.55;2.13;;;;;;;;;;10325636;28;20061;-60
2024/02/23 10:38:26;;;;;;;8.05;1.90;;;;;;;;;;10326713;28;20521;-61
2024/02/23 10:43:37;;;;;;;4.50;2.30;;;;;;;;;;10326450;28;20019;-61
2024/02/23 10:48:41;;;;;;;3.45;2.00;;;;;;;;;;10326222;28;20038;-61
2024/02/23 10:53:43;;;;;;;2.38;2.00;;;;;;;;;;10326236;28;20508;-60
2024/02/23 10:58:44;;;;;;;3.70;2.25;;;;;;;;;;10325374;28;20018;-62
2024/02/23 11:03:49;;;;;;;3.67;2.20;;;;;;;;;;10325877;28;20519;-62
2024/02/23 11:08:51;;;;;;;3.88;2.17;;;;;;;;;;10325336;28;20046;-61
2024/02/23 11:13:56;;;;;;;4.05;2.15;;;;;;;;;;10326132;28;20359;-61
2024/02/23 11:19:11;;;;;;;2.08;1.88;;;;;;;;;;10333457;28;20446;-61
2024/02/23 11:24:16;;;;;;;3.53;2.10;;;;;;;;;;10333209;28;20040;-61
2024/02/23 11:29:18;;;;;;;4.43;1.90;;;;;;;;;;10333031;28;20026;-61
2024/02/23 11:34:30;;;;;;;3.47;2.08;;;;;;;;;;10332557;28;20042;-61
2024/02/23 11:39:30;;;;;;;5.82;2.10;;;;;;;;;;10333400;28;20084;-61
2024/02/23 11:44:31;;;;;;;2.60;1.80;;;;;;;;;;10330905;28;20374;-61
2024/02/23 11:49:32;;;;;;;3.78;2.00;;;;;;;;;;10332011;28;20030;-60
2024/02/23 11:54:33;;;;;;;5.18;2.10;;;;;;;;;;10332467;28;20041;-60
2024/02/23 11:59:33;;;;;;;2.35;2.00;;;;;;;;;;10332292;28;20034;-60
2024/02/23 12:04:34;;;;;;;2.65;2.20;;;;;;;;;;10331678;28;20487;-60
2024/02/23 12:09:35;;;;;;;3.45;2.05;;;;;;;;;;10331631;28;20038;-60
2024/02/23 12:14:36;;;;;;;2.72;2.10;;;;;;;;;;10331697;28;20096;-60
2024/02/23 12:19:41;;;;;;;3.78;2.20;;;;;;;;;;10331765;28;20031;-59
2024/02/23 12:24:42;;;;;;;2.90;1.98;;;;;;;;;;10331034;28;20280;-61
2024/02/23 12:29:42;;;;;;;6.70;2.10;;;;;;;;;;10330100;28;20038;-60
2024/02/23 12:34:44;;;;;;;2.15;1.80;;;;;;;;;;10330769;28;20031;-60
2024/02/23 12:39:45;;;;;;;3.03;2.13;;;;;;;;;;10330858;28;20412;-61
2024/02/23 12:44:45;;;;;;;2.20;2.00;;;;;;;;;;10330083;28;20022;-60
2024/02/23 12:49:46;;;;;;;3.55;2.22;;;;;;;;;;10330786;28;20610;-60
2024/02/23 12:54:46;;;;;;;3.25;1.98;;;;;;;;;;10329730;28;20398;-60
2024/02/23 12:59:47;;;;;;;2.80;2.22;;;;;;;;;;10329259;28;20414;-60
2024/02/23 13:04:49;;;;;;;3.15;2.10;;;;;;;;;;10329195;28;20054;-60
2024/02/23 13:09:50;;;;;;;3.83;2.10;;;;;;;;;;10329224;28;20039;-59
2024/02/23 13:14:52;;;;;;;3.50;2.05;;;;;;;;;;10329108;28;20031;-60
2024/02/23 13:19:52;;;;;;;4.10;2.30;;;;;;;;;;10329275;28;20035;-59
2024/02/23 13:24:53;;;;;;;4.88;1.85;;;;;;;;;;10328601;28;20027;-59
2024/02/23 13:29:53;;;;;;;2.95;1.73;;;;;;;;;;10328233;28;20026;-59
2024/02/23 13:34:54;;;;;;;2.63;2.00;;;;;;;;;;10328760;28;20417;-59
2024/02/23 13:39:55;;;;;;;1.90;1.70;;;;;;;;;;10328264;28;20331;-60
2024/02/23 13:44:55;;;;;;;2.10;1.70;;;;;;;;;;10327496;28;20031;-60
2024/02/23 13:49:56;;;;;;;3.35;1.90;;;;;;;;;;10326345;28;20034;-60
2024/02/23 13:54:57;;;;;;;3.20;2.08;;;;;;;;;;10326763;28;20027;-60
2024/02/23 13:59:58;;;;;;;3.03;1.77;;;;;;;;;;10326587;28;20027;-59
2024/02/23 14:05:06;;;;;;;2.92;1.83;;;;;;;;;;10326427;28;20057;-59
2024/02/23 14:10:08;;;;;;;5.43;2.00;;;;;;;;;;10326470;28;20113;-60
2024/02/23 14:15:10;;;;;;;3.33;1.70;;;;;;;;;;10327038;28;20027;-59
2024/02/23 14:20:11;;;;;;;4.72;2.05;;;;;;;;;;10326673;28;20037;-60
2024/02/23 14:25:12;;;;;;;2.63;1.80;;;;;;;;;;10326266;28;20368;-61
2024/02/23 14:30:13;;;;;;;1.73;1.60;;;;;;;;;;10326714;28;20030;-60
2024/02/23 14:35:14;;;;;;;1.63;1.50;;;;;;;;;;10327085;28;20026;-60
2024/02/23 14:40:14;;;;;;;4.82;2.20;;;;;;;;;;10326898;28;20030;-60
2024/02/23 14:45:16;;;;;;;2.35;1.90;;;;;;;;;;10326976;28;20033;-60
2024/02/23 14:50:17;;;;;;;2.72;1.80;;;;;;;;;;10329366;28;20030;-59
2024/02/23 14:55:18;;;;;;;1.67;1.58;;;;;;;;;;10332683;28;20273;-60
2024/02/23 15:00:19;;;;;;;3.75;2.10;;;;;;;;;;10334583;28;20566;-60
2024/02/23 15:05:19;;;;;;;4.32;1.80;;;;;;;;;;10333935;28;20130;-60
2024/02/23 15:10:20;;;;;;;2.55;1.63;;;;;;;;;;10333654;28;20504;-60
2024/02/23 15:15:21;;;;;;;1.92;1.58;;;;;;;;;;10333298;28;20397;-60
2024/02/23 15:20:22;;;;;;;6.13;2.10;;;;;;;;;;10333811;28;20043;-60
2024/02/23 15:25:23;;;;;;;2.67;1.77;;;;;;;;;;10333830;28;20030;-60
2024/02/23 15:30:25;;;;;;;6.15;1.73;;;;;;;;;;10332845;28;20474;-60
2024/02/23 15:35:27;;;;;;;3.25;1.75;;;;;;;;;;10332941;28;20378;-60
2024/02/23 15:40:28;;;;;;;5.05;2.28;;;;;;;;;;10332961;28;20039;-60
2024/02/23 15:45:29;;;;;;;3.20;1.77;;;;;;;;;;10332262;28;20026;-60
2024/02/23 15:50:31;;;;;;;5.28;1.70;;;;;;;;;;10332103;28;20037;-60
2024/02/23 15:55:31;;;;;;;2.88;1.85;;;;;;;;;;10332445;28;20034;-59
2024/02/23 16:00:32;;;;;;;7.63;2.15;;;;;;;;;;10332032;28;20474;-60
2024/02/23 16:05:32;;;;;;;3.05;1.60;;;;;;;;;;10331522;28;20479;-60
2024/02/23 16:10:33;;;;;;;3.83;1.95;;;;;;;;;;10331023;28;20040;-60
2024/02/23 16:15:34;;;;;;;6.90;2.15;;;;;;;;;;10331309;28;20031;-61
2024/02/23 16:20:34;;;;;;;4.65;1.85;;;;;;;;;;10331817;28;20033;-61
2024/02/23 16:25:35;;;;;;;5.70;2.13;;;;;;;;;;10330771;28;20030;-61
2024/02/23 16:30:38;;;;;;;5.47;1.80;;;;;;;;;;10330422;28;20041;-61
2024/02/23 16:35:39;;;;;;;6.68;2.00;;;;;;;;;;10331579;28;20038;-61
2024/02/23 16:40:41;;;;;;;3.20;1.83;;;;;;;;;;10330435;28;20053;-61
2024/02/23 16:45:41;;;;;;;6.50;2.28;;;;;;;;;;10330686;28;20136;-61
2024/02/23 16:50:42;;;;;;;5.82;1.95;;;;;;;;;;10328958;28;20030;-61
2024/02/23 16:55:46;;;;;;;6.47;2.53;;;;;;;;;;10328428;28;20037;-61
2024/02/23 17:00:46;;;;;;;4.53;1.90;;;;;;;;;;10330483;28;20022;-61
2024/02/23 17:05:47;;;;;;;3.10;1.85;;;;;;;;;;10346206;23;20054;-72
2024/02/23 17:10:47;;;;;;;4.40;2.25;;;;;;;;;;10334685;28;20027;-72
2024/02/23 17:15:48;;;;;;;5.18;2.15;;;;;;;;;;10328048;28;20030;-67
2024/02/23 17:20:50;;;;;;;4.75;2.28;;;;;;;;;;10329298;28;20041;-70
2024/02/23 17:25:51;;;;;;;4.55;1.90;;;;;;;;;;10329060;28;20030;-72
2024/02/23 17:30:51;;;;;;;2.72;2.05;;;;;;;;;;10328612;28;20034;-70
2024/02/23 17:35:53;;;;;;;4.93;2.60;;;;;;;;;;10328045;28;20061;-71
2024/02/23 17:40:53;;;;;;;5.07;2.05;;;;;;;;;;10328907;28;20033;-76
2024/02/23 17:45:54;;;;;;;4.82;2.67;;;;;;;;;;10327661;28;20034;-69
2024/02/23 17:50:54;;;;;;;8.23;2.13;;;;;;;;;;10327539;28;20042;-67
2024/02/23 17:55:57;;;;;;;4.90;2.33;;;;;;;;;;10327469;28;20033;-69
2024/02/23 18:00:57;;;;;;;3.15;2.13;;;;;;;;;;10324632;28;20554;-72
2024/02/23 18:05:58;;;;;;;3.08;2.20;;;;;;;;;;10326305;28;20333;-71
2024/02/23 18:10:59;;;;;;;7.35;2.33;;;;;;;;;;10325909;28;20026;-72
2024/02/23 18:16:03;;;;;;;3.67;2.30;;;;;;;;;;10327008;28;20030;-70
2024/02/23 18:21:06;;;;;;;2.70;2.10;;;;;;;;;;10327342;28;20027;-71
2024/02/23 18:26:07;;;;;;;3.72;2.17;;;;;;;;;;10325566;28;20030;-75
2024/02/23 18:31:08;;;;;;;3.72;1.98;;;;;;;;;;10326277;28;20049;-72
2024/02/23 18:36:13;;;;;;;5.25;2.40;;;;;;;;;;10324754;28;20508;-71
2024/02/23 18:41:14;;;;;;;3.88;2.30;;;;;;;;;;10327043;28;20022;-71
2024/02/23 18:46:15;;;;;;;4.13;2.25;;;;;;;;;;10325861;28;20081;-72
2024/02/23 18:51:19;;;;;;;4.28;2.50;;;;;;;;;;10323986;28;20088;-71
2024/02/23 18:56:19;;;;;;;4.22;2.22;;;;;;;;;;10325016;28;20172;-70
2024/02/23 19:01:20;;;;;;;9.13;2.90;;;;;;;;;;10325007;28;20037;-68
2024/02/23 19:06:21;;;;;;;6.05;2.88;;;;;;;;;;10324889;28;20046;-70
2024/02/23 19:11:21;;;;;;;10.80;3.30;;;;;;;;;;10326003;28;20146;-69
2024/02/23 19:16:22;;;;;;;17.10;3.65;;;;;;;;;;10325758;28;20046;-67
2024/02/23 19:21:23;;;;;;;6.53;3.33;;;;;;;;;;10325521;28;20073;-70
2024/02/23 19:26:23;;;;;;;4.78;3.13;;;;;;;;;;10325130;28;20027;-73
2024/02/23 19:31:25;;;;;;;10.00;3.80;;;;;;;;;;10324029;28;20470;-71
2024/02/23 19:36:26;;;;;;;7.63;3.80;;;;;;;;;;10327532;28;20053;-73
2024/02/23 19:41:27;;;;;;;10.45;3.70;;;;;;;;;;10332416;28;20056;-73
2024/02/23 19:46:27;;;;;;;7.47;3.35;;;;;;;;;;10332563;28;20284;-69
2024/02/23 19:51:28;;;;;;;4.45;3.47;;;;;;;;;;10332254;28;20027;-76
2024/02/23 19:56:30;;;;;;;8.07;3.50;;;;;;;;;;10331311;28;20026;-71
2024/02/23 20:01:30;;;;;;;6.90;3.38;;;;;;;;;;10330377;28;20034;-71
2024/02/23 20:06:31;;;;;;;6.28;3.03;;;;;;;;;;10331608;28;20046;-67
2024/02/23 20:11:32;;;;;;;6.93;2.83;;;;;;;;;;10330179;28;20092;-71
2024/02/23 20:16:32;;;;;;;10.88;3.50;;;;;;;;;;10326879;28;20045;-73
2024/02/23 20:21:33;;;;;;;4.90;2.92;;;;;;;;;;10328801;28;20034;-76
2024/02/23 20:26:34;;;;;;;5.32;3.15;;;;;;;;;;10328941;28;20429;-76
2024/02/23 20:31:36;;;;;;;12.52;4.07;;;;;;;;;;10328356;28;20030;-75
2024/02/23 20:36:38;;;;;;;18.20;3.58;;;;;;;;;;10328975;28;20093;-74
2024/02/23 20:41:39;;;;;;;8.80;3.42;;;;;;;;;;10327915;28;20545;-70
2024/02/23 20:46:40;;;;;;;12.88;3.00;;;;;;;;;;10327528;28;20026;-73
2024/02/23 20:51:43;;;;;;;5.93;3.50;;;;;;;;;;10329987;28;20486;-66
2024/02/23 20:56:43;;;;;;;9.23;3.60;;;;;;;;;;10328237;28;20034;-67
2024/02/23 21:01:44;;;;;;;6.80;3.42;;;;;;;;;;10328084;28;20034;-72
2024/02/23 21:06:44;;;;;;;10.50;3.70;;;;;;;;;;10328407;28;20050;-73
2024/02/23 21:11:45;;;;;;;4.43;2.38;;;;;;;;;;10328377;28;20034;-74
2024/02/23 21:16:46;;;;;;;7.57;3.13;;;;;;;;;;10328537;28;20026;-69
2024/02/23 21:21:46;;;;;;;6.57;3.17;;;;;;;;;;10328338;28;20030;-69
2024/02/23 21:26:49;;;;;;;9.10;3.85;;;;;;;;;;10328042;28;20037;-69
2024/02/23 21:31:49;;;;;;;11.82;3.58;;;;;;;;;;10319483;28;20157;-70
2024/02/23 21:36:50;;;;;;;9.02;2.90;;;;;;;;;;10324256;28;20447;-69
2024/02/23 21:41:50;;;;;;;8.10;3.25;;;;;;;;;;10323749;28;20045;-69
2024/02/23 21:46:51;;;;;;;11.13;3.30;;;;;;;;;;10325824;28;20158;-69
2024/02/23 21:51:51;;;;;;;8.73;2.80;;;;;;;;;;10326594;28;20023;-68
2024/02/23 21:56:52;;;;;;;5.47;2.90;;;;;;;;;;10327668;28;20022;-69
2024/02/23 22:01:53;;;;;;;10.77;3.13;;;;;;;;;;10327908;28;20026;-68
2024/02/23 22:06:53;;;;;;;14.55;3.42;;;;;;;;;;10326320;28;20111;-68
2024/02/23 22:11:54;;;;;;;13.55;2.92;;;;;;;;;;10326391;28;20026;-69
2024/02/23 22:16:54;;;;;;;9.45;3.38;;;;;;;;;;10326595;28;20034;-68
2024/02/23 22:21:55;;;;;;;9.30;3.13;;;;;;;;;;10326944;28;20077;-68
2024/02/23 22:26:56;;;;;;;9.80;2.83;;;;;;;;;;10326565;28;20033;-69
2024/02/23 22:31:58;;;;;;;6.07;2.88;;;;;;;;;;10326779;28;20037;-69
2024/02/23 22:36:58;;;;;;;9.15;3.28;;;;;;;;;;10326415;28;20031;-69
2024/02/23 22:41:59;;;;;;;6.95;2.60;;;;;;;;;;10325919;28;20154;-70
2024/02/23 22:46:59;;;;;;;6.45;3.10;;;;;;;;;;10326279;28;20039;-69
2024/02/23 22:52:00;;;;;;;6.78;3.05;;;;;;;;;;10326524;28;20045;-69
2024/02/23 22:57:00;;;;;;;8.30;3.00;;;;;;;;;;10325457;28;20026;-69
2024/02/23 23:02:02;;;;;;;7.07;2.97;;;;;;;;;;10325575;28;20034;-70
2024/02/23 23:07:03;;;;;;;6.75;2.75;;;;;;;;;;10324357;28;20049;-70
2024/02/23 23:12:04;;;;;;;3.80;2.60;;;;;;;;;;10327921;28;20076;-70
2024/02/23 23:17:05;;;;;;;4.53;2.50;;;;;;;;;;10333853;28;20026;-70
2024/02/23 23:22:06;;;;;;;5.25;2.50;;;;;;;;;;10332986;28;20026;-71
2024/02/23 23:27:06;;;;;;;3.33;2.55;;;;;;;;;;10331610;28;20410;-70
2024/02/23 23:32:09;;;;;;;4.68;2.63;;;;;;;;;;10331184;28;20046;-70
2024/02/23 23:37:10;;;;;;;5.25;2.92;;;;;;;;;;10333214;28;20121;-70
2024/02/23 23:42:10;;;;;;;5.80;2.67;;;;;;;;;;10330772;28;20533;-70
2024/02/23 23:47:11;;;;;;;7.28;2.80;;;;;;;;;;10331923;28;20057;-70
2024/02/23 23:52:11;;;;;;;8.30;2.80;;;;;;;;;;10330322;28;20394;-70
2024/02/23 23:57:12;;;;;;;7.95;3.75;;;;;;;;;;10330830;28;20109;-73
